ADDS METAR Data INFO
IDs: Format: Raw Decoded Include TAF

Data at: 1218 UTC 23 Apr 2018

METAR for:KHCR (Heber City Muni, UT, US)
Text:KHCR 231155Z AUTO 09008KT 10SM SCT100 SCT120 05/00 A3004 RMK AO2
Temperature: 5.0°C ( 41°F)
Dewpoint: 0.0°C ( 32°F) [RH = 70%]
Pressure (altimeter):30.04 inches Hg (1017.4 mb)
Winds:from the E (90 degrees) at 9 MPH (8 knots; 4.1 m/s)
Visibility:10 or more sm (16+ km)
Ceiling:at least 12,000 feet AGL
Clouds: scattered clouds at 10000 feet AGL, scattered clouds at 12000 feet AGL
QC Flag:automated observation with no human augmentation